createdAt,value
2023-04-22T00:00:20.485Z,10.10
2023-04-22T00:04:25.277Z,9.70
2023-04-22T00:08:30.873Z,9.50
2023-04-22T00:12:34.517Z,9.20
2023-04-22T00:16:38.101Z,8.90
2023-04-22T00:20:45.053Z,8.80
2023-04-22T00:24:48.108Z,8.80
2023-04-22T00:28:53.842Z,8.60
2023-04-22T00:32:57.251Z,8.50
2023-04-22T00:37:02.368Z,8.40
2023-04-22T00:41:09.546Z,8.40
2023-04-22T00:45:18.004Z,8.30
2023-04-22T00:49:26.410Z,8.20
2023-04-22T00:53:32.276Z,8.10
2023-04-22T00:57:42.045Z,7.90
2023-04-22T01:01:46.076Z,7.80
2023-04-22T01:05:52.544Z,7.70
2023-04-22T01:10:02.082Z,7.60
2023-04-22T01:14:06.471Z,7.70
2023-04-22T01:18:10.055Z,7.90
2023-04-22T01:22:19.047Z,8.00
2023-04-22T01:26:24.725Z,8.00
2023-04-22T01:30:30.835Z,8.00
2023-04-22T01:34:35.409Z,7.90
2023-04-22T01:38:40.801Z,7.80
2023-04-22T01:42:45.329Z,7.70
2023-04-22T01:46:48.410Z,7.50
2023-04-22T01:50:51.548Z,7.40
2023-04-22T01:54:55.648Z,7.30
2023-04-22T01:59:00.163Z,7.40
2023-04-22T02:03:06.700Z,7.60
2023-04-22T02:07:12.600Z,7.80
2023-04-22T02:11:15.678Z,8.20
2023-04-22T02:15:24.389Z,8.50
2023-04-22T02:19:27.627Z,8.70
2023-04-22T02:23:31.104Z,8.80
2023-04-22T02:27:34.172Z,8.90
2023-04-22T02:31:38.804Z,8.80
2023-04-22T02:35:41.901Z,8.90
2023-04-22T02:39:48.927Z,9.20
2023-04-22T02:43:54.788Z,9.30
2023-04-22T02:48:02.084Z,9.10
2023-04-22T02:52:05.618Z,8.90
2023-04-22T02:56:12.425Z,8.70
2023-04-22T03:00:16.038Z,8.50
2023-04-22T03:04:22.064Z,8.30
2023-04-22T03:08:25.510Z,8.10
2023-04-22T03:12:28.542Z,8.10
2023-04-22T03:16:31.912Z,8.30
2023-04-22T03:20:36.869Z,8.60
2023-04-22T03:24:42.914Z,8.80
2023-04-22T03:28:48.574Z,9.10
2023-04-22T03:32:53.672Z,9.10
2023-04-22T03:36:58.877Z,8.90
2023-04-22T03:41:03.319Z,8.70
2023-04-22T03:45:07.565Z,8.50
2023-04-22T03:49:16.709Z,8.50
2023-04-22T03:53:21.189Z,8.40
2023-04-22T03:57:24.316Z,8.30
2023-04-22T04:01:27.927Z,8.10
2023-04-22T04:05:31.042Z,8.00
2023-04-22T04:09:38.377Z,7.90
2023-04-22T04:13:41.839Z,7.70
2023-04-22T04:17:44.918Z,7.70
2023-04-22T04:21:48.497Z,7.80
2023-04-22T04:25:52.972Z,8.00
2023-04-22T04:29:56.050Z,8.00
2023-04-22T04:33:59.421Z,7.80
2023-04-22T04:38:03.020Z,7.70
2023-04-22T04:42:07.663Z,7.50
2023-04-22T04:46:11.437Z,7.50
2023-04-22T04:50:14.555Z,7.40
2023-04-22T04:54:22.378Z,7.30
2023-04-22T04:58:30.970Z,7.20
2023-04-22T05:02:39.851Z,7.20
2023-04-22T05:06:43.465Z,7.20
2023-04-22T05:10:49.104Z,7.10
2023-04-22T05:14:54.555Z,7.30
2023-04-22T05:18:57.949Z,7.40
2023-04-22T05:23:00.996Z,7.70
2023-04-22T05:27:04.396Z,8.00
2023-04-22T05:31:11.843Z,8.20
2023-04-22T05:35:15.851Z,8.40
2023-04-22T05:39:18.884Z,8.60
2023-04-22T05:43:21.916Z,8.80
2023-04-22T05:47:26.749Z,9.00
2023-04-22T05:51:35.996Z,9.20
2023-04-22T05:55:40.947Z,9.40
2023-04-22T05:59:46.512Z,9.70
2023-04-22T06:03:51.172Z,10.00
2023-04-22T06:07:57.611Z,10.30
2023-04-22T06:12:02.100Z,10.80
2023-04-22T06:16:06.251Z,11.30
2023-04-22T06:20:14.036Z,11.70
2023-04-22T06:24:17.202Z,12.00
2023-04-22T06:28:20.529Z,12.40
2023-04-22T06:32:25.087Z,12.80
2023-04-22T06:36:30.727Z,13.20
2023-04-22T06:40:36.015Z,13.60
2023-04-22T06:44:39.349Z,14.00
2023-04-22T06:48:42.449Z,14.30
2023-04-22T06:52:48.966Z,14.60
2023-04-22T06:56:52.031Z,15.00
2023-04-22T07:00:55.158Z,15.30
2023-04-22T07:04:58.289Z,15.60
2023-04-22T07:09:02.996Z,15.80
2023-04-22T07:13:06.368Z,16.10
2023-04-22T07:17:09.606Z,16.30
2023-04-22T07:21:13.462Z,16.90
2023-04-22T07:25:18.182Z,17.80
2023-04-22T07:29:23.671Z,18.60
2023-04-22T07:33:33.375Z,18.70
2023-04-22T07:37:36.386Z,18.90
2023-04-22T07:41:40.838Z,19.30
2023-04-22T07:45:47.012Z,19.20
2023-04-22T07:49:50.074Z,19.10
2023-04-22T07:53:54.968Z,18.90
2023-04-22T07:58:01.011Z,18.90
2023-04-22T08:02:10.867Z,19.10
2023-04-22T08:06:20.670Z,19.40
2023-04-22T08:10:23.829Z,19.80
2023-04-22T08:14:28.622Z,20.60
2023-04-22T08:18:34.480Z,21.40
2023-04-22T08:22:41.404Z,21.90
2023-04-22T08:26:45.429Z,22.00
2023-04-22T08:30:57.310Z,22.20
2023-04-22T08:35:04.971Z,22.50
2023-04-22T08:39:09.949Z,22.80
2023-04-22T08:43:13.639Z,23.00
2023-04-22T08:47:22.075Z,23.30
2023-04-22T08:51:25.516Z,23.70
2023-04-22T08:55:28.774Z,24.00
2023-04-22T08:59:32.769Z,24.20
2023-04-22T09:03:40.389Z,24.20
2023-04-22T09:07:43.782Z,24.40
2023-04-22T09:11:50.494Z,24.40
2023-04-22T09:15:56.267Z,24.20
2023-04-22T09:20:05.138Z,24.40
2023-04-22T09:24:13.023Z,24.70
2023-04-22T09:28:23.335Z,25.00
2023-04-22T09:32:29.511Z,25.50
2023-04-22T09:36:37.571Z,25.60
2023-04-22T09:40:50.420Z,26.10
2023-04-22T09:44:54.400Z,26.50
2023-04-22T09:48:58.799Z,26.60
2023-04-22T09:53:05.273Z,27.00
2023-04-22T09:57:16.434Z,27.30
2023-04-22T10:01:24.339Z,27.40
2023-04-22T10:05:32.418Z,27.60
2023-04-22T10:09:42.168Z,27.50
2023-04-22T10:13:51.122Z,27.60
2023-04-22T10:17:56.275Z,27.50
2023-04-22T10:22:02.188Z,27.60
2023-04-22T10:26:07.273Z,27.70
2023-04-22T10:30:12.213Z,28.00
2023-04-22T10:34:19.927Z,27.60
2023-04-22T10:38:24.613Z,27.70
2023-04-22T10:42:32.596Z,27.70
2023-04-22T10:47:05.170Z,28.00
2023-04-22T10:51:40.454Z,28.40
2023-04-22T10:55:51.970Z,28.70
2023-04-22T11:00:00.529Z,28.80
2023-04-22T11:04:23.164Z,28.90
2023-04-22T11:08:32.597Z,28.50
2023-04-22T11:12:51.142Z,28.00
2023-04-22T11:16:58.045Z,27.90
2023-04-22T11:21:08.525Z,27.80
2023-04-22T11:25:13.627Z,28.10
2023-04-22T11:29:16.645Z,28.40
2023-04-22T11:33:29.472Z,28.80
2023-04-22T11:37:32.810Z,29.40
2023-04-22T11:41:35.821Z,29.80
2023-04-22T11:45:41.426Z,30.10
2023-04-22T11:49:59.291Z,29.70
2023-04-22T11:54:02.317Z,29.50
2023-04-22T11:58:08.332Z,29.00
2023-04-22T12:02:12.040Z,28.20
2023-04-22T12:06:17.846Z,27.50
2023-04-22T12:10:20.874Z,27.20
2023-04-22T12:14:33.391Z,27.00
2023-04-22T12:18:37.743Z,26.80
2023-04-22T12:22:49.363Z,26.70
2023-04-22T12:26:52.540Z,26.50
2023-04-22T12:30:58.125Z,26.50
2023-04-22T12:35:04.552Z,26.30
2023-04-22T12:39:16.095Z,26.40
2023-04-22T12:43:19.392Z,26.50
2023-04-22T12:47:36.087Z,26.70
2023-04-22T12:51:40.946Z,26.80
2023-04-22T12:55:46.201Z,27.00
2023-04-22T12:59:49.719Z,27.20
2023-04-22T13:03:53.304Z,27.30
2023-04-22T13:08:06.364Z,27.40
2023-04-22T13:12:11.855Z,27.20
2023-04-22T13:16:14.913Z,27.30
2023-04-22T13:20:17.931Z,27.30
2023-04-22T13:24:23.319Z,27.50
2023-04-22T13:28:27.764Z,27.70
2023-04-22T13:32:33.766Z,27.90
2023-04-22T13:36:39.790Z,28.20
2023-04-22T13:40:43.075Z,28.70
2023-04-22T13:44:48.495Z,29.40
2023-04-22T13:48:53.465Z,29.90
2023-04-22T13:52:56.832Z,29.90
2023-04-22T13:57:00.148Z,29.50
2023-04-22T14:01:04.565Z,29.10
2023-04-22T14:05:10.639Z,29.10
2023-04-22T14:09:17.926Z,29.70
2023-04-22T14:13:25.918Z,30.10
2023-04-22T14:17:30.384Z,30.20
2023-04-22T14:21:33.432Z,30.50
2023-04-22T14:25:36.461Z,30.50
2023-04-22T14:29:39.767Z,30.40
2023-04-22T14:33:44.531Z,29.50
2023-04-22T14:37:52.829Z,29.10
2023-04-22T14:41:59.124Z,29.10
2023-04-22T14:46:02.707Z,29.20
2023-04-22T14:50:11.487Z,29.20
2023-04-22T14:54:14.545Z,28.80
2023-04-22T14:58:19.688Z,28.60
2023-04-22T15:02:22.895Z,28.70
2023-04-22T15:06:27.641Z,28.70
2023-04-22T15:10:34.052Z,28.60
2023-04-22T15:14:40.519Z,28.40
2023-04-22T15:18:44.193Z,28.40
2023-04-22T15:22:48.665Z,28.60
2023-04-22T15:26:55.012Z,28.70
2023-04-22T15:30:58.406Z,28.80
2023-04-22T15:35:05.067Z,28.70
2023-04-22T15:39:11.875Z,28.60
2023-04-22T15:43:20.210Z,28.50
2023-04-22T15:47:24.343Z,28.40
2023-04-22T15:51:28.635Z,28.40
2023-04-22T15:55:33.352Z,28.50
2023-04-22T15:59:36.776Z,28.60
2023-04-22T16:03:43.572Z,28.90
2023-04-22T16:07:46.790Z,29.10
2023-04-22T16:11:52.551Z,29.40
2023-04-22T16:15:55.660Z,29.50
2023-04-22T16:20:00.654Z,29.20
2023-04-22T16:24:04.767Z,29.10
2023-04-22T16:28:11.705Z,29.10
2023-04-22T16:32:14.771Z,29.00
2023-04-22T16:36:19.598Z,28.50
2023-04-22T16:40:22.765Z,28.30
2023-04-22T16:44:29.854Z,28.00
2023-04-22T16:48:35.551Z,27.70
2023-04-22T16:52:40.369Z,27.30
2023-04-22T16:56:44.408Z,26.80
2023-04-22T17:00:48.835Z,26.50
2023-04-22T17:04:52.181Z,26.10
2023-04-22T17:08:55.250Z,25.50
2023-04-22T17:13:00.857Z,25.00
2023-04-22T17:17:05.298Z,24.40
2023-04-22T17:21:09.782Z,23.80
2023-04-22T17:25:12.751Z,23.30
2023-04-22T17:29:15.856Z,22.90
2023-04-22T17:33:21.981Z,22.60
2023-04-22T17:37:27.126Z,22.30
2023-04-22T17:41:30.159Z,22.00
2023-04-22T17:45:34.305Z,21.70
2023-04-22T17:49:39.070Z,21.40
2023-04-22T17:53:42.926Z,21.10
2023-04-22T17:57:54.104Z,20.90
2023-04-22T18:01:58.136Z,20.60
2023-04-22T18:06:06.614Z,20.40
2023-04-22T18:10:11.583Z,20.10
2023-04-22T18:14:14.677Z,19.90
2023-04-22T18:18:17.895Z,19.70
2023-04-22T18:22:25.672Z,19.50
2023-04-22T18:26:31.222Z,19.20
2023-04-22T18:30:34.334Z,19.10
2023-04-22T18:34:37.563Z,19.00
2023-04-22T18:38:45.307Z,18.70
2023-04-22T18:42:48.630Z,18.50
2023-04-22T18:46:53.049Z,18.20
2023-04-22T18:50:56.174Z,17.90
2023-04-22T18:55:00.744Z,17.60
2023-04-22T18:59:04.188Z,17.40
2023-04-22T19:03:07.416Z,17.10
2023-04-22T19:07:11.818Z,16.90
2023-04-22T19:11:22.534Z,16.80
2023-04-22T19:15:25.758Z,16.60
2023-04-22T19:19:31.900Z,16.40
2023-04-22T19:23:38.156Z,16.30
2023-04-22T19:27:44.606Z,16.10
2023-04-22T19:31:47.857Z,16.00
2023-04-22T19:35:50.984Z,15.90
2023-04-22T19:39:54.395Z,15.80
2023-04-22T19:43:59.842Z,15.70
2023-04-22T19:48:03.558Z,15.50
2023-04-22T19:52:09.133Z,15.40
2023-04-22T19:56:15.472Z,15.30
2023-04-22T20:00:21.916Z,15.30
2023-04-22T20:04:26.091Z,15.20
2023-04-22T20:08:29.263Z,15.20
2023-04-22T20:12:37.134Z,15.20
2023-04-22T20:16:42.671Z,15.10
2023-04-22T20:20:49.325Z,15.20
2023-04-22T20:25:03.752Z,15.30
2023-04-22T20:29:09.149Z,15.40
2023-04-22T20:33:20.691Z,15.40
2023-04-22T20:37:27.119Z,15.50
2023-04-22T20:41:36.153Z,15.50
2023-04-22T20:45:44.220Z,15.50
2023-04-22T20:49:48.637Z,15.60
2023-04-22T20:53:52.601Z,15.70
2023-04-22T20:58:02.180Z,15.70
2023-04-22T21:02:09.628Z,15.80
2023-04-22T21:06:14.820Z,15.80
2023-04-22T21:10:19.826Z,16.10
2023-04-22T21:14:26.246Z,16.30
2023-04-22T21:18:31.927Z,16.60
2023-04-22T21:22:37.598Z,16.70
2023-04-22T21:26:41.883Z,16.90
2023-04-22T21:30:45.603Z,16.90
2023-04-22T21:34:48.743Z,16.60
2023-04-22T21:38:53.259Z,16.40
2023-04-22T21:42:56.567Z,16.40
2023-04-22T21:46:59.651Z,16.50
2023-04-22T21:51:02.915Z,16.50
2023-04-22T21:55:11.546Z,16.50
2023-04-22T21:59:14.878Z,16.50
2023-04-22T22:03:18.076Z,16.40
2023-04-22T22:07:24.546Z,16.40
2023-04-22T22:11:33.847Z,16.40
2023-04-22T22:15:38.736Z,16.20
2023-04-22T22:19:42.059Z,16.10
2023-04-22T22:23:48.978Z,16.00
2023-04-22T22:27:55.872Z,15.90
2023-04-22T22:31:59.862Z,15.80
2023-04-22T22:36:05.134Z,15.60
2023-04-22T22:40:10.145Z,15.50
2023-04-22T22:44:14.548Z,15.40
2023-04-22T22:48:17.616Z,15.30
2023-04-22T22:52:21.027Z,15.10
2023-04-22T22:56:23.987Z,15.00
2023-04-22T23:00:34.349Z,14.90
2023-04-22T23:04:39.455Z,14.90
2023-04-22T23:08:43.796Z,14.80
2023-04-22T23:12:53.069Z,14.70
2023-04-22T23:16:57.701Z,14.70
2023-04-22T23:21:03.562Z,14.60
2023-04-22T23:25:10.651Z,14.60
2023-04-22T23:29:18.861Z,14.60
2023-04-22T23:33:25.851Z,14.50
2023-04-22T23:37:30.610Z,14.40
2023-04-22T23:41:35.020Z,14.40
2023-04-22T23:45:39.440Z,14.40
2023-04-22T23:49:45.802Z,14.50
2023-04-22T23:53:50.918Z,14.50
2023-04-22T23:57:55.740Z,14.50
